Time;durP1;ratioP1;P1;durP2;ratioP2;P2;SDS_P1;SDS_P2;PMS_P1;PMS_P2;Temp;Humidity;BMP_temperature;BMP_pressure;BME280_temperature;BME280_humidity;BME280_pressure;Samples;Min_cycle;Max_cycle;Signal;HPM_P1;HPM_P2
2023/01/27 00:01:24;;;;;;;15.18;8.98;;;4.80;99.90;;;;;;5133836;27;20043;-62
2023/01/27 00:03:50;;;;;;;11.65;8.43;;;4.80;99.90;;;;;;5134172;27;20038;-63
2023/01/27 00:06:15;;;;;;;15.57;9.68;;;4.80;99.90;;;;;;5134444;27;20448;-63
2023/01/27 00:08:41;;;;;;;14.63;9.38;;;4.80;99.90;;;;;;5133284;27;20091;-63
2023/01/27 00:13:51;;;;;;;14.68;9.90;;;4.80;99.90;;;;;;5133662;27;20042;-63
2023/01/27 00:16:16;;;;;;;12.95;9.18;;;4.80;99.90;;;;;;5133664;27;20042;-63
2023/01/27 00:18:42;;;;;;;15.05;9.43;;;4.70;99.90;;;;;;5133541;27;20381;-63
2023/01/27 00:26:36;;;;;;;13.82;9.70;;;4.70;99.90;;;;;;5133323;27;20096;-63
2023/01/27 00:29:02;;;;;;;17.58;9.50;;;4.70;99.90;;;;;;5133892;27;20035;-63
2023/01/27 00:34:12;;;;;;;17.83;9.10;;;4.80;99.90;;;;;;5133271;27;20548;-63
2023/01/27 00:36:39;;;;;;;18.63;7.93;;;4.70;99.90;;;;;;5133143;27;20142;-63
2023/01/27 00:39:06;;;;;;;15.52;7.57;;;4.60;99.90;;;;;;5132832;27;20403;-62
2023/01/27 00:41:33;;;;;;;11.68;7.68;;;4.70;99.90;;;;;;5133744;27;20084;-62
2023/01/27 00:43:59;;;;;;;9.27;7.68;;;4.60;99.90;;;;;;5133295;27;20043;-63
2023/01/27 00:46:25;;;;;;;11.98;7.30;;;4.80;99.90;;;;;;5133341;27;20559;-63
2023/01/27 00:48:51;;;;;;;12.30;7.32;;;4.70;99.90;;;;;;5133181;27;20118;-63
2023/01/27 00:51:18;;;;;;;12.43;6.68;;;4.70;99.90;;;;;;5133527;27;20075;-63
2023/01/27 00:53:44;;;;;;;10.50;7.05;;;4.70;99.90;;;;;;5133416;27;20053;-63
2023/01/27 00:56:10;;;;;;;10.38;6.90;;;4.60;99.90;;;;;;5133303;27;20033;-63
2023/01/27 00:58:36;;;;;;;12.15;5.65;;;4.60;99.90;;;;;;5133205;27;20439;-63
2023/01/27 01:01:04;;;;;;;10.52;5.13;;;4.60;99.90;;;;;;5133045;27;20035;-63
2023/01/27 01:03:32;;;;;;;9.57;5.07;;;4.70;99.90;;;;;;5133193;27;20046;-63
2023/01/27 01:06:07;;;;;;;11.35;5.55;;;4.70;99.90;;;;;;5132875;28;20515;-63
2023/01/27 01:08:34;;;;;;;10.65;5.68;;;4.70;99.90;;;;;;5133090;28;20042;-63
2023/01/27 01:11:00;;;;;;;8.30;5.25;;;4.70;99.90;;;;;;5133258;28;20039;-63
2023/01/27 01:13:27;;;;;;;10.70;5.07;;;4.70;99.90;;;;;;5132866;28;20496;-63
2023/01/27 01:15:53;;;;;;;10.52;5.22;;;4.70;99.90;;;;;;5133024;28;20043;-63
2023/01/27 01:18:19;;;;;;;9.68;5.22;;;4.70;99.90;;;;;;5132959;28;20047;-63
2023/01/27 01:20:45;;;;;;;7.05;5.00;;;4.70;99.90;;;;;;5136498;27;20043;-63
2023/01/27 01:23:13;;;;;;;7.80;5.18;;;4.70;99.90;;;;;;5136941;27;20479;-63
2023/01/27 01:25:39;;;;;;;9.20;5.30;;;4.60;99.90;;;;;;5137191;27;20035;-63
2023/01/27 01:28:06;;;;;;;6.88;4.85;;;4.70;99.90;;;;;;5118847;27;20492;-63
2023/01/27 01:30:34;;;;;;;8.52;4.68;;;4.70;99.90;;;;;;5136719;27;20122;-63
2023/01/27 01:33:00;;;;;;;7.78;4.43;;;4.70;99.90;;;;;;5136997;27;20038;-63
2023/01/27 01:35:25;;;;;;;6.47;4.38;;;4.70;99.90;;;;;;5136659;27;20054;-63
2023/01/27 01:37:52;;;;;;;5.03;3.70;;;4.70;99.90;;;;;;5136593;27;20045;-63
2023/01/27 01:40:18;;;;;;;5.90;3.97;;;4.70;99.90;;;;;;5136457;27;20123;-63
2023/01/27 01:42:59;;;;;;;8.32;3.45;;;4.70;99.90;;;;;;5136760;27;20374;-63
2023/01/27 01:45:30;;;;;;;5.93;2.95;;;4.70;99.90;;;;;;5136698;27;20035;-63
2023/01/27 01:48:04;;;;;;;3.08;2.30;;;4.80;99.90;;;;;;5136451;27;20071;-63
2023/01/27 01:50:31;;;;;;;8.02;2.65;;;4.80;99.90;;;;;;5136828;27;20055;-63
2023/01/27 01:52:58;;;;;;;3.85;2.53;;;4.80;99.90;;;;;;5136585;27;20114;-63
2023/01/27 01:55:24;;;;;;;6.05;2.60;;;4.80;99.90;;;;;;5136290;27;20485;-63
2023/01/27 01:57:50;;;;;;;4.13;2.95;;;4.80;99.90;;;;;;5136347;27;20031;-63
2023/01/27 02:00:16;;;;;;;6.72;2.83;;;4.80;99.90;;;;;;5136038;27;20145;-63
2023/01/27 02:02:43;;;;;;;8.15;3.15;;;4.80;99.90;;;;;;5136411;27;20039;-63
2023/01/27 02:05:26;;;;;;;7.20;3.35;;;4.80;99.90;;;;;;5136228;27;20035;-63
2023/01/27 02:08:03;;;;;;;6.40;3.03;;;4.80;99.90;;;;;;5136346;27;20043;-63
2023/01/27 02:10:29;;;;;;;6.22;3.28;;;4.80;99.90;;;;;;5136047;27;20075;-63
2023/01/27 02:12:55;;;;;;;5.68;3.00;;;4.80;99.90;;;;;;5136083;27;20082;-63
2023/01/27 02:15:20;;;;;;;5.93;2.80;;;4.80;99.90;;;;;;5136158;27;20433;-63
2023/01/27 02:17:47;;;;;;;5.00;2.67;;;4.80;99.90;;;;;;5136019;27;20039;-63
2023/01/27 02:20:42;;;;;;;8.68;2.72;;;4.80;99.90;;;;;;5135975;27;20043;-63
2023/01/27 02:23:27;;;;;;;9.90;2.72;;;4.80;99.90;;;;;;5135832;27;20598;-63
2023/01/27 02:26:02;;;;;;;3.75;2.15;;;4.80;99.90;;;;;;5135964;27;20401;-63
2023/01/27 02:28:29;;;;;;;4.28;1.85;;;4.80;99.90;;;;;;5135781;27;20358;-63
2023/01/27 02:30:55;;;;;;;3.15;1.55;;;4.80;99.90;;;;;;5116985;27;20119;-63
2023/01/27 02:33:21;;;;;;;4.65;2.03;;;4.80;99.90;;;;;;5116820;27;20514;-63
2023/01/27 02:36:11;;;;;;;4.28;2.00;;;4.80;99.90;;;;;;5135462;27;20042;-63
2023/01/27 02:38:41;;;;;;;4.82;2.08;;;4.80;99.90;;;;;;5135700;27;20199;-63
2023/01/27 02:41:26;;;;;;;3.80;1.50;;;4.80;99.90;;;;;;5135498;27;20054;-63
2023/01/27 02:43:52;;;;;;;4.93;1.70;;;4.80;99.90;;;;;;5135521;27;20059;-63
2023/01/27 02:46:18;;;;;;;6.20;1.55;;;4.80;99.90;;;;;;5135721;27;20035;-63
2023/01/27 02:48:43;;;;;;;5.32;1.73;;;4.80;99.90;;;;;;5135638;27;20397;-63
2023/01/27 02:51:09;;;;;;;4.05;1.75;;;4.80;99.90;;;;;;5135475;27;20392;-63
2023/01/27 02:53:35;;;;;;;4.40;1.25;;;4.80;99.90;;;;;;5135191;27;20047;-63
2023/01/27 02:56:01;;;;;;;2.08;0.98;;;4.80;99.90;;;;;;5135617;27;20050;-63
2023/01/27 02:58:26;;;;;;;2.05;1.10;;;4.80;99.90;;;;;;5135154;27;20060;-63
2023/01/27 03:00:52;;;;;;;5.40;1.25;;;4.80;99.90;;;;;;5135081;27;20043;-63
2023/01/27 03:03:18;;;;;;;3.45;1.45;;;4.80;99.90;;;;;;5135438;27;20080;-63
2023/01/27 03:05:44;;;;;;;2.65;1.25;;;4.70;99.90;;;;;;5135172;27;20039;-64
2023/01/27 03:08:10;;;;;;;5.18;1.30;;;4.80;99.90;;;;;;5134944;27;20028;-63
2023/01/27 03:10:35;;;;;;;4.32;1.65;;;4.70;99.90;;;;;;5135180;27;20446;-63
2023/01/27 03:13:01;;;;;;;3.90;1.23;;;4.70;99.90;;;;;;5135038;27;20043;-63
2023/01/27 03:18:17;;;;;;;1.70;1.10;;;4.70;99.90;;;;;;5135331;27;20043;-63
2023/01/27 03:20:45;;;;;;;4.57;1.35;;;4.70;99.90;;;;;;5134695;27;20080;-63
2023/01/27 03:23:11;;;;;;;3.70;1.17;;;4.70;99.90;;;;;;5134914;27;20481;-63
2023/01/27 03:25:44;;;;;;;3.35;0.90;;;4.70;99.90;;;;;;5134912;27;20035;-63
2023/01/27 03:28:10;;;;;;;4.38;1.33;;;4.70;99.90;;;;;;5134949;27;20039;-63
2023/01/27 03:30:36;;;;;;;2.72;1.45;;;4.70;99.90;;;;;;5134751;27;20039;-63
2023/01/27 03:33:04;;;;;;;2.90;1.00;;;4.60;99.90;;;;;;5134626;27;20043;-63
2023/01/27 03:35:33;;;;;;;4.10;1.10;;;4.60;99.90;;;;;;5134428;27;20031;-63
2023/01/27 03:46:16;;;;;;;3.35;1.17;;;4.60;99.90;;;;;;5134129;27;20083;-63
2023/01/27 03:48:41;;;;;;;2.08;0.90;;;4.60;99.90;;;;;;5134098;27;20451;-63
2023/01/27 03:51:09;;;;;;;3.55;1.40;;;4.60;99.90;;;;;;5134271;27;20116;-63
2023/01/27 03:53:35;;;;;;;3.20;1.00;;;4.60;99.90;;;;;;5134095;27;20107;-64
2023/01/27 03:56:02;;;;;;;7.88;1.10;;;4.60;99.90;;;;;;5134106;27;20074;-63
2023/01/27 03:58:36;;;;;;;3.20;1.00;;;4.60;99.90;;;;;;5134122;27;20405;-63
2023/01/27 04:01:11;;;;;;;1.92;1.30;;;4.50;99.90;;;;;;5133903;27;20385;-63
2023/01/27 04:09:09;;;;;;;3.55;1.02;;;4.50;99.90;;;;;;5133915;27;20082;-63
2023/01/27 04:11:53;;;;;;;4.63;0.90;;;4.50;99.90;;;;;;5133806;27;20503;-63
2023/01/27 04:14:42;;;;;;;5.90;1.90;;;4.50;99.90;;;;;;5133761;27;20110;-63
2023/01/27 04:17:16;;;;;;;2.47;0.90;;;4.50;99.90;;;;;;5133667;27;20043;-63
2023/01/27 04:19:42;;;;;;;4.85;1.05;;;4.40;99.90;;;;;;5133452;27;20046;-63
2023/01/27 04:22:10;;;;;;;2.55;0.98;;;4.40;99.90;;;;;;5133873;27;20043;-64
2023/01/27 04:24:35;;;;;;;1.95;1.02;;;4.40;99.90;;;;;;5133558;27;20035;-63
2023/01/27 04:27:09;;;;;;;3.13;1.20;;;4.30;99.90;;;;;;5133747;27;20138;-63
2023/01/27 04:29:39;;;;;;;3.55;1.30;;;4.40;99.90;;;;;;5133359;27;20039;-63
2023/01/27 04:32:05;;;;;;;4.53;1.10;;;4.40;99.90;;;;;;5133281;27;20507;-63
2023/01/27 04:34:31;;;;;;;3.95;1.00;;;4.40;99.90;;;;;;5133544;27;20091;-63
2023/01/27 04:36:57;;;;;;;2.38;1.00;;;4.40;99.90;;;;;;5133446;27;20438;-63
2023/01/27 04:39:23;;;;;;;4.18;1.50;;;4.40;99.90;;;;;;5133026;27;20051;-63
2023/01/27 04:41:48;;;;;;;3.38;1.20;;;4.40;99.90;;;;;;5133097;27;20036;-63
2023/01/27 04:44:14;;;;;;;7.03;1.95;;;4.30;99.90;;;;;;5133124;27;20043;-63
2023/01/27 04:46:40;;;;;;;5.07;1.48;;;4.40;99.90;;;;;;5132985;27;20047;-63
2023/01/27 04:49:06;;;;;;;7.30;1.63;;;4.40;99.90;;;;;;5132844;27;20032;-64
2023/01/27 04:51:32;;;;;;;4.78;1.15;;;4.40;99.90;;;;;;5133324;27;20068;-63
2023/01/27 04:53:58;;;;;;;3.47;1.35;;;4.40;99.90;;;;;;5133068;27;20046;-63
2023/01/27 04:56:35;;;;;;;2.35;1.30;;;4.40;99.90;;;;;;5133256;27;20083;-63
2023/01/27 04:59:03;;;;;;;4.40;1.45;;;4.40;99.90;;;;;;5132898;27;20045;-63
2023/01/27 05:01:29;;;;;;;4.03;1.45;;;4.40;99.90;;;;;;5132768;27;20548;-63
2023/01/27 05:03:55;;;;;;;6.93;2.03;;;4.40;99.90;;;;;;5132876;27;20035;-63
2023/01/27 05:06:21;;;;;;;4.18;1.55;;;4.40;99.90;;;;;;5132943;28;20079;-63
2023/01/27 05:08:47;;;;;;;2.22;1.70;;;4.40;99.90;;;;;;5114431;28;20036;-63
2023/01/27 05:11:13;;;;;;;5.43;1.73;;;4.40;99.90;;;;;;5133157;28;20043;-63
2023/01/27 05:13:42;;;;;;;6.90;2.03;;;4.40;99.90;;;;;;5132637;28;20040;-63
2023/01/27 05:16:11;;;;;;;3.65;1.50;;;4.40;99.90;;;;;;5132686;28;20043;-63
2023/01/27 05:18:37;;;;;;;;;;;4.40;99.90;;;;;;5133226;28;20039;-63
2023/01/27 05:21:03;;;;;;;5.57;1.52;;;4.40;99.90;;;;;;5132786;28;20288;-63
2023/01/27 05:23:35;;;;;;;3.95;1.45;;;4.30;99.90;;;;;;5132744;28;20039;-63
2023/01/27 05:26:06;;;;;;;3.50;1.50;;;4.40;99.90;;;;;;5132522;28;20118;-64
2023/01/27 05:28:33;;;;;;;6.25;1.70;;;4.40;99.90;;;;;;5096753;28;20469;-63
2023/01/27 05:31:04;;;;;;;5.28;1.50;;;4.40;99.90;;;;;;5114383;28;20035;-63
2023/01/27 05:33:30;;;;;;;4.75;1.83;;;4.40;99.90;;;;;;5132745;28;20035;-63
2023/01/27 05:35:59;;;;;;;2.67;1.42;;;4.40;99.90;;;;;;5132536;28;20031;-63
2023/01/27 05:38:24;;;;;;;4.05;1.75;;;4.30;99.90;;;;;;5132504;28;20454;-63
2023/01/27 05:40:55;;;;;;;4.25;1.55;;;4.40;99.90;;;;;;5132416;28;20047;-63
2023/01/27 05:43:21;;;;;;;3.53;1.38;;;4.40;99.90;;;;;;5132560;28;20114;-64
2023/01/27 05:45:46;;;;;;;5.35;1.40;;;4.30;99.90;;;;;;5132562;28;20153;-63
2023/01/27 05:48:12;;;;;;;3.83;1.25;;;4.40;99.90;;;;;;5114221;28;20100;-63
2023/01/27 05:50:38;;;;;;;4.28;1.77;;;4.40;99.90;;;;;;5132486;28;20442;-63
2023/01/27 05:53:03;;;;;;;5.40;1.20;;;4.40;99.90;;;;;;5132705;28;20039;-63
2023/01/27 05:55:29;;;;;;;3.30;1.30;;;4.30;99.90;;;;;;5132244;28;20370;-63
2023/01/27 05:57:54;;;;;;;4.25;1.50;;;4.30;99.90;;;;;;5132089;28;20735;-63
2023/01/27 06:00:20;;;;;;;4.90;1.33;;;4.40;99.90;;;;;;5132382;28;20035;-63
2023/01/27 06:02:46;;;;;;;2.67;1.20;;;4.40;99.90;;;;;;5132520;28;20035;-63
2023/01/27 06:05:12;;;;;;;4.50;1.17;;;4.30;99.90;;;;;;5114052;27;20043;-63
2023/01/27 06:07:37;;;;;;;2.80;1.17;;;4.40;99.90;;;;;;5116998;27;20497;-63
2023/01/27 06:10:04;;;;;;;1.20;1.08;;;4.30;99.90;;;;;;5135893;27;20103;-63
2023/01/27 06:12:30;;;;;;;2.03;1.10;;;4.30;99.90;;;;;;5135837;27;20098;-63
2023/01/27 06:14:59;;;;;;;4.05;1.20;;;4.30;99.90;;;;;;5136052;27;20039;-63
2023/01/27 06:17:24;;;;;;;2.67;1.10;;;4.30;99.90;;;;;;5135923;27;20071;-63
2023/01/27 06:19:50;;;;;;;3.58;1.13;;;4.30;99.90;;;;;;5135682;27;20073;-64
2023/01/27 06:22:16;;;;;;;1.50;0.90;;;4.30;99.90;;;;;;5135658;27;20039;-63
2023/01/27 06:24:41;;;;;;;4.03;1.10;;;4.30;99.90;;;;;;5117088;27;20074;-63
2023/01/27 06:27:07;;;;;;;4.15;0.98;;;4.30;99.90;;;;;;5135908;27;20107;-63
2023/01/27 06:29:32;;;;;;;3.08;1.02;;;4.20;99.90;;;;;;5135764;27;20023;-63
2023/01/27 06:31:58;;;;;;;2.40;1.23;;;4.20;99.90;;;;;;5135863;27;20046;-64
2023/01/27 06:34:24;;;;;;;3.15;0.90;;;4.20;99.90;;;;;;5135585;27;20163;-64
2023/01/27 06:36:52;;;;;;;3.10;1.05;;;4.20;99.90;;;;;;5135553;27;20424;-63
2023/01/27 06:39:18;;;;;;;4.85;1.05;;;4.20;99.90;;;;;;5116957;27;20059;-63
2023/01/27 06:41:43;;;;;;;3.67;0.82;;;4.20;99.90;;;;;;5135105;27;20036;-63
2023/01/27 06:44:09;;;;;;;3.65;0.98;;;4.20;99.90;;;;;;5135186;27;20123;-63
2023/01/27 06:46:35;;;;;;;5.45;1.35;;;4.20;99.90;;;;;;5135280;27;20042;-64
2023/01/27 06:49:01;;;;;;;3.65;1.30;;;4.20;99.90;;;;;;5135259;27;20039;-63
2023/01/27 06:51:26;;;;;;;5.53;1.40;;;4.20;99.90;;;;;;5135088;27;20031;-63
2023/01/27 06:53:52;;;;;;;4.28;1.63;;;4.20;99.90;;;;;;5135026;27;20035;-63
2023/01/27 06:56:18;;;;;;;4.70;1.50;;;4.20;99.90;;;;;;5135032;27;20035;-63
2023/01/27 06:58:43;;;;;;;3.17;1.20;;;4.20;99.90;;;;;;5135189;27;20039;-63
2023/01/27 07:01:09;;;;;;;2.90;1.10;;;4.20;99.90;;;;;;5134902;27;20047;-63
2023/01/27 07:03:34;;;;;;;2.25;1.30;;;4.20;99.90;;;;;;5134764;27;20077;-63
2023/01/27 07:06:00;;;;;;;3.45;1.13;;;4.20;99.90;;;;;;5134885;27;20114;-63
2023/01/27 07:08:26;;;;;;;5.28;1.40;;;4.20;99.90;;;;;;5134864;27;20076;-63
2023/01/27 07:10:51;;;;;;;2.67;1.10;;;4.20;99.90;;;;;;5134693;27;20039;-63
2023/01/27 07:13:20;;;;;;;4.72;1.30;;;4.20;99.90;;;;;;5134789;27;20031;-63
2023/01/27 07:15:46;;;;;;;4.53;1.42;;;4.20;99.90;;;;;;5134801;27;20058;-63
2023/01/27 07:18:13;;;;;;;5.75;1.30;;;4.20;99.90;;;;;;5134402;27;20122;-63
2023/01/27 07:20:39;;;;;;;3.70;1.40;;;4.20;99.90;;;;;;5116047;27;20492;-63
2023/01/27 07:23:05;;;;;;;2.30;1.45;;;4.20;99.90;;;;;;5134507;27;20047;-63
2023/01/27 07:25:33;;;;;;;3.55;1.10;;;4.20;99.90;;;;;;5134933;27;20049;-63
2023/01/27 07:27:59;;;;;;;4.95;1.20;;;4.20;99.90;;;;;;5134638;27;20444;-63
2023/01/27 07:30:26;;;;;;;3.08;0.93;;;4.20;99.90;;;;;;5134495;27;20058;-64
2023/01/27 07:32:53;;;;;;;4.57;1.20;;;4.20;99.90;;;;;;5134520;27;20122;-63
2023/01/27 07:35:20;;;;;;;5.30;1.67;;;4.20;99.90;;;;;;5134562;27;20456;-63
2023/01/27 07:37:46;;;;;;;4.25;1.20;;;4.20;99.90;;;;;;5116292;27;20047;-63
2023/01/27 07:40:15;;;;;;;8.00;1.27;;;4.20;99.90;;;;;;5133990;27;20393;-63
2023/01/27 07:42:41;;;;;;;5.65;1.48;;;4.20;99.90;;;;;;5134283;27;20047;-64
2023/01/27 07:45:08;;;;;;;11.15;2.28;;;4.20;99.90;;;;;;5134415;27;20480;-63
2023/01/27 07:47:34;;;;;;;6.30;1.10;;;4.20;99.90;;;;;;5134413;27;20085;-63
2023/01/27 07:49:59;;;;;;;6.30;1.45;;;4.20;99.90;;;;;;5134014;27;20511;-64
2023/01/27 07:52:25;;;;;;;3.08;1.10;;;4.20;99.90;;;;;;5133696;27;20132;-63
2023/01/27 07:54:50;;;;;;;4.72;1.20;;;4.20;99.90;;;;;;5133871;27;20047;-64
2023/01/27 07:57:16;;;;;;;6.55;1.38;;;4.20;99.90;;;;;;5133962;27;20047;-64
2023/01/27 07:59:42;;;;;;;2.97;1.25;;;4.20;99.90;;;;;;5115711;27;20370;-63
2023/01/27 08:02:09;;;;;;;7.13;1.40;;;4.30;99.90;;;;;;5115016;27;20039;-63
2023/01/27 08:04:35;;;;;;;5.53;1.30;;;4.20;99.90;;;;;;5133874;27;20131;-63
2023/01/27 08:07:01;;;;;;;4.97;1.30;;;4.30;99.90;;;;;;5115191;27;20066;-63
2023/01/27 08:09:26;;;;;;;5.43;1.50;;;4.20;99.90;;;;;;5133801;27;20039;-63
2023/01/27 08:11:52;;;;;;;4.28;1.42;;;4.30;99.90;;;;;;5133704;27;20045;-63
2023/01/27 08:14:18;;;;;;;3.00;1.33;;;4.30;99.90;;;;;;5133414;27;20039;-64
2023/01/27 08:16:43;;;;;;;8.32;1.67;;;4.40;99.90;;;;;;5133435;27;20039;-63
2023/01/27 08:19:09;;;;;;;5.15;1.20;;;4.30;99.90;;;;;;5133344;27;20393;-63
2023/01/27 08:21:35;;;;;;;6.15;1.77;;;4.40;99.90;;;;;;5133299;27;20043;-63
2023/01/27 08:24:00;;;;;;;6.95;1.60;;;4.30;99.90;;;;;;5133521;27;20035;-63
2023/01/27 08:26:26;;;;;;;7.30;1.77;;;4.40;99.90;;;;;;5133390;27;20062;-64
2023/01/27 08:28:52;;;;;;;10.57;1.55;;;4.40;99.90;;;;;;5133156;27;20524;-63
2023/01/27 08:31:18;;;;;;;5.70;1.60;;;4.40;99.90;;;;;;5133373;27;20067;-63
2023/01/27 08:33:48;;;;;;;7.07;1.70;;;4.30;99.90;;;;;;5133287;27;20042;-63
2023/01/27 08:36:15;;;;;;;5.38;1.48;;;4.30;99.90;;;;;;5133200;27;20051;-63
2023/01/27 08:38:42;;;;;;;5.97;1.50;;;4.30;99.90;;;;;;5133456;27;20047;-63
2023/01/27 08:41:12;;;;;;;3.85;1.50;;;4.30;99.90;;;;;;5133286;27;20096;-63
2023/01/27 08:43:37;;;;;;;5.75;1.77;;;4.40;99.90;;;;;;5133109;27;20039;-64
2023/01/27 08:46:04;;;;;;;9.20;1.83;;;4.40;99.90;;;;;;5132932;27;20039;-64
2023/01/27 08:48:30;;;;;;;5.50;1.55;;;4.50;99.90;;;;;;5133066;27;20384;-60
2023/01/27 08:50:57;;;;;;;3.80;1.50;;;4.60;99.90;;;;;;5133216;27;20118;-60
2023/01/27 08:53:24;;;;;;;8.65;1.60;;;4.60;99.90;;;;;;5133224;27;20076;-60
2023/01/27 08:55:50;;;;;;;7.18;1.70;;;4.60;99.90;;;;;;5133177;27;20216;-60
2023/01/27 08:58:16;;;;;;;4.00;1.83;;;4.60;99.90;;;;;;5133176;27;20483;-60
2023/01/27 09:00:42;;;;;;;5.50;1.92;;;4.60;99.90;;;;;;5133257;27;20061;-60
2023/01/27 09:03:08;;;;;;;9.25;1.73;;;4.60;99.90;;;;;;5132945;27;20039;-59
2023/01/27 09:05:36;;;;;;;4.82;2.20;;;4.60;99.90;;;;;;5133110;27;20092;-60
2023/01/27 09:08:02;;;;;;;8.60;1.90;;;4.60;99.90;;;;;;5132822;27;20472;-61
2023/01/27 09:10:28;;;;;;;4.95;1.90;;;4.60;99.90;;;;;;5133191;28;20042;-60
2023/01/27 09:12:53;;;;;;;9.40;1.77;;;4.60;99.90;;;;;;5133187;28;20043;-60
2023/01/27 09:15:19;;;;;;;6.63;1.83;;;4.60;99.90;;;;;;5132781;28;20126;-60
2023/01/27 09:17:46;;;;;;;7.25;1.73;;;4.60;99.90;;;;;;5132730;28;20035;-60
2023/01/27 09:20:12;;;;;;;5.60;1.90;;;4.60;99.90;;;;;;5133104;28;20050;-60
2023/01/27 09:22:39;;;;;;;5.07;1.92;;;4.60;99.90;;;;;;5097399;28;20031;-60
2023/01/27 09:25:07;;;;;;;5.50;1.80;;;4.70;99.90;;;;;;5132887;28;20031;-60
2023/01/27 09:27:33;;;;;;;4.53;2.05;;;4.70;99.90;;;;;;5114380;28;20043;-60
2023/01/27 09:29:58;;;;;;;8.77;1.90;;;4.70;99.90;;;;;;5132557;28;20031;-60
2023/01/27 09:32:24;;;;;;;5.97;1.70;;;4.80;99.90;;;;;;5132582;28;20042;-60
2023/01/27 09:34:49;;;;;;;3.47;1.70;;;4.80;99.90;;;;;;5132948;28;20473;-60
2023/01/27 09:37:16;;;;;;;5.75;1.80;;;4.90;99.90;;;;;;5132850;28;20049;-60
2023/01/27 09:39:51;;;;;;;2.53;1.20;;;4.90;99.90;;;;;;5131991;27;20508;-60
2023/01/27 09:42:48;;;;;;;2.00;1.10;;;4.90;99.90;;;;;;5135515;27;20039;-60
2023/01/27 09:45:30;;;;;;;3.95;1.30;;;5.10;99.90;;;;;;5136649;27;20504;-60
2023/01/27 09:48:13;;;;;;;5.53;1.42;;;5.10;99.90;;;;;;5136697;27;20035;-60
2023/01/27 09:50:39;;;;;;;4.63;1.33;;;5.10;99.90;;;;;;5136565;27;20118;-61
2023/01/27 09:53:23;;;;;;;2.35;0.90;;;5.10;99.90;;;;;;5136472;27;20113;-60
2023/01/27 09:56:09;;;;;;;5.18;1.20;;;5.00;99.90;;;;;;5136564;27;20122;-60
2023/01/27 09:58:56;;;;;;;4.10;1.10;;;5.10;99.90;;;;;;5135844;27;20477;-60
2023/01/27 10:01:36;;;;;;;2.58;1.00;;;5.10;99.90;;;;;;5136487;27;20039;-60
2023/01/27 10:04:10;;;;;;;3.05;1.10;;;5.10;99.90;;;;;;5136344;27;20039;-60
2023/01/27 10:06:52;;;;;;;2.95;1.10;;;5.00;99.90;;;;;;5136349;27;20122;-60
2023/01/27 10:09:43;;;;;;;2.58;0.75;;;5.00;99.90;;;;;;5136063;27;20110;-60
2023/01/27 10:12:21;;;;;;;2.55;0.70;;;5.00;99.90;;;;;;5134647;27;20042;-60
2023/01/27 10:14:53;;;;;;;1.55;0.73;;;5.00;99.90;;;;;;5134852;27;20042;-61
2023/01/27 10:17:54;;;;;;;3.13;0.98;;;4.90;99.90;;;;;;5135964;27;20035;-60
2023/01/27 10:20:59;;;;;;;4.15;0.90;;;4.90;99.90;;;;;;5135707;27;20039;-60
2023/01/27 10:23:47;;;;;;;4.00;1.25;;;4.90;99.90;;;;;;5117708;27;20093;-60
2023/01/27 10:26:38;;;;;;;4.25;1.10;;;4.90;99.90;;;;;;5135800;27;20066;-60
2023/01/27 10:29:16;;;;;;;5.28;1.20;;;4.90;99.90;;;;;;5135812;27;20173;-60
2023/01/27 10:31:52;;;;;;;2.33;1.25;;;4.90;99.90;;;;;;5136082;27;20039;-60
2023/01/27 10:34:34;;;;;;;3.63;1.60;;;4.90;99.90;;;;;;5135815;27;20046;-60
2023/01/27 10:37:14;;;;;;;2.00;0.80;;;5.00;99.90;;;;;;5135632;27;20031;-60
2023/01/27 10:40:11;;;;;;;0.75;0.50;;;5.00;99.90;;;;;;5135225;27;20101;-60
2023/01/27 10:42:37;;;;;;;3.03;1.00;;;5.00;99.90;;;;;;5032047;28;20060;-60
2023/01/27 10:45:11;;;;;;;1.40;0.70;;;4.90;99.90;;;;;;5032047;28;20045;-60
2023/01/27 10:48:01;;;;;;;0.60;0.60;;;5.00;99.90;;;;;;5031985;28;20121;-60
2023/01/27 10:50:34;;;;;;;1.27;0.80;;;5.00;99.90;;;;;;5032038;28;20073;-59
2023/01/27 10:53:09;;;;;;;1.55;0.80;;;5.00;99.90;;;;;;5031363;28;20049;-60
2023/01/27 10:55:43;;;;;;;2.15;0.90;;;4.90;99.90;;;;;;5015107;28;20156;-60
2023/01/27 10:58:42;;;;;;;2.10;1.20;;;4.90;99.90;;;;;;5031899;28;20149;-60
2023/01/27 11:01:12;;;;;;;2.92;1.20;;;4.90;99.90;;;;;;5031894;28;20051;-60
2023/01/27 11:03:49;;;;;;;4.03;1.38;;;4.80;99.90;;;;;;5031754;28;20049;-60
2023/01/27 11:06:22;;;;;;;2.17;1.42;;;4.80;99.90;;;;;;5031490;28;20045;-59
2023/01/27 11:08:58;;;;;;;2.90;1.40;;;4.80;99.90;;;;;;5031551;28;20103;-59
2023/01/27 11:14:14;;;;;;;2.22;1.65;;;4.80;99.90;;;;;;5031319;28;20045;-60
2023/01/27 11:16:45;;;;;;;2.78;1.88;;;4.80;99.90;;;;;;5031349;28;20072;-60
2023/01/27 11:19:44;;;;;;;3.17;1.92;;;4.70;99.90;;;;;;5070528;27;20055;-60
2023/01/27 11:22:18;;;;;;;2.15;2.00;;;4.80;99.90;;;;;;5134539;27;20118;-60
2023/01/27 11:25:00;;;;;;;2.67;2.08;;;4.70;99.90;;;;;;5134330;27;20115;-60
2023/01/27 11:27:49;;;;;;;4.35;2.53;;;4.70;99.90;;;;;;5134347;27;20036;-60
2023/01/27 11:30:20;;;;;;;4.72;2.58;;;4.70;99.90;;;;;;5134465;27;20035;-60
2023/01/27 11:33:16;;;;;;;5.57;2.80;;;4.70;99.90;;;;;;5134476;27;20058;-60
2023/01/27 11:35:42;;;;;;;4.85;2.90;;;4.70;99.90;;;;;;5134514;27;20106;-59
2023/01/27 11:38:14;;;;;;;4.05;2.70;;;4.70;99.90;;;;;;5134385;27;20529;-60
2023/01/27 11:40:40;;;;;;;3.83;2.78;;;4.60;99.90;;;;;;5134191;27;20484;-60
2023/01/27 11:43:06;;;;;;;3.50;2.95;;;4.60;99.90;;;;;;5134346;27;20074;-60
2023/01/27 11:45:36;;;;;;;3.72;2.90;;;4.60;99.90;;;;;;5134170;27;20035;-60
2023/01/27 11:48:06;;;;;;;4.57;2.78;;;4.50;99.90;;;;;;5134428;27;20043;-60
2023/01/27 11:50:34;;;;;;;4.07;2.83;;;4.60;99.90;;;;;;5133790;27;20504;-60
2023/01/27 11:53:35;;;;;;;4.38;3.10;;;4.50;99.90;;;;;;5134079;27;20171;-60
2023/01/27 11:56:09;;;;;;;4.25;3.35;;;4.50;99.90;;;;;;5133982;27;20039;-60
2023/01/27 11:58:59;;;;;;;5.28;3.30;;;4.50;99.90;;;;;;5115749;27;20050;-60
2023/01/27 12:01:43;;;;;;;4.03;3.22;;;4.50;99.90;;;;;;5133782;27;20043;-60
2023/01/27 12:04:18;;;;;;;6.18;3.38;;;4.50;99.90;;;;;;5133134;27;20071;-60
2023/01/27 12:06:53;;;;;;;3.70;2.88;;;4.40;99.90;;;;;;5133773;27;20118;-60
2023/01/27 12:09:36;;;;;;;3.30;2.60;;;4.50;99.90;;;;;;5133946;27;20123;-60
2023/01/27 12:12:10;;;;;;;3.25;2.83;;;4.50;99.90;;;;;;5133746;27;20043;-61
2023/01/27 12:14:35;;;;;;;3.10;2.80;;;4.50;99.90;;;;;;5133707;27;20047;-59
2023/01/27 12:17:04;;;;;;;2.80;2.58;;;4.50;99.90;;;;;;5133575;27;20050;-60
2023/01/27 12:19:36;;;;;;;4.75;3.22;;;4.50;99.90;;;;;;5115682;27;20043;-60
2023/01/27 12:22:13;;;;;;;4.03;3.15;;;4.50;99.90;;;;;;5133608;27;20044;-60
2023/01/27 12:24:45;;;;;;;3.78;2.88;;;4.50;99.90;;;;;;5133536;27;20031;-60
2023/01/27 12:27:23;;;;;;;4.10;3.20;;;4.50;99.90;;;;;;5133276;27;20122;-60
2023/01/27 12:29:56;;;;;;;4.25;3.58;;;4.50;99.90;;;;;;5133514;27;20035;-60
2023/01/27 12:32:41;;;;;;;3.70;3.40;;;4.50;99.90;;;;;;5133339;27;20085;-61
2023/01/27 12:35:19;;;;;;;3.45;3.15;;;4.40;99.90;;;;;;5114761;27;20441;-60
2023/01/27 12:37:47;;;;;;;7.10;3.63;;;4.50;99.90;;;;;;5133198;27;20489;-61
2023/01/27 12:40:20;;;;;;;4.30;3.73;;;4.50;99.90;;;;;;5132940;27;20183;-60
2023/01/27 12:43:10;;;;;;;3.40;3.05;;;4.40;99.90;;;;;;5133454;27;20123;-60
2023/01/27 12:45:37;;;;;;;;;;;4.50;99.90;;;;;;5133384;27;20074;-60
2023/01/27 12:48:08;;;;;;;3.80;3.08;;;4.40;99.90;;;;;;5133059;27;19915;-60
2023/01/27 12:50:36;;;;;;;4.15;3.33;;;4.40;99.90;;;;;;5133288;27;20039;-60
2023/01/27 12:53:04;;;;;;;3.53;3.22;;;4.40;99.90;;;;;;5132932;27;20564;-60
2023/01/27 12:55:34;;;;;;;3.40;3.08;;;4.40;99.90;;;;;;5133199;27;20043;-60
2023/01/27 12:58:00;;;;;;;2.90;2.60;;;4.40;99.90;;;;;;5133045;27;20035;-61
2023/01/27 13:00:27;;;;;;;2.90;2.63;;;4.40;99.90;;;;;;5114686;27;20465;-60
2023/01/27 13:03:02;;;;;;;3.22;2.63;;;4.40;99.90;;;;;;5132789;27;20520;-60
2023/01/27 13:05:33;;;;;;;3.58;2.70;;;4.40;99.90;;;;;;5132825;27;20031;-60
2023/01/27 13:08:00;;;;;;;4.80;3.42;;;4.40;99.90;;;;;;5132820;27;20031;-60
2023/01/27 13:10:26;;;;;;;3.70;2.58;;;4.40;99.90;;;;;;5132678;28;20035;-60
2023/01/27 13:12:57;;;;;;;3.85;2.70;;;4.40;99.90;;;;;;5131417;28;20087;-60
2023/01/27 13:15:27;;;;;;;3.33;2.75;;;4.30;99.90;;;;;;5114656;27;20024;-60
2023/01/27 13:17:57;;;;;;;4.10;2.70;;;4.40;99.90;;;;;;5137049;27;20036;-60
2023/01/27 13:20:46;;;;;;;3.67;3.05;;;4.40;99.90;;;;;;5137005;27;20046;-60
2023/01/27 13:23:16;;;;;;;3.33;2.70;;;4.40;99.90;;;;;;5137203;27;20035;-60
2023/01/27 13:26:07;;;;;;;4.38;2.50;;;4.40;99.90;;;;;;5136694;27;20092;-60
2023/01/27 13:28:46;;;;;;;3.55;3.25;;;4.50;99.90;;;;;;5033493;28;20065;-60
2023/01/27 13:31:18;;;;;;;2.58;2.38;;;4.50;99.90;;;;;;5033422;28;20133;-60
2023/01/27 13:33:59;;;;;;;4.13;2.28;;;4.50;99.90;;;;;;5016688;28;20057;-61
2023/01/27 13:36:44;;;;;;;2.30;2.10;;;4.50;99.90;;;;;;5033448;28;20059;-61
2023/01/27 13:39:31;;;;;;;2.75;2.55;;;4.50;99.90;;;;;;5033187;28;20132;-60
2023/01/27 13:42:17;;;;;;;3.28;2.85;;;4.50;99.90;;;;;;5014825;28;20053;-60
2023/01/27 13:45:03;;;;;;;2.60;2.40;;;4.50;99.90;;;;;;5016416;28;20501;-60